Time;durP1;ratioP1;P1;durP2;ratioP2;P2;SDS_P1;SDS_P2;PMS_P1;PMS_P2;Temp;Humidity;BMP_temperature;BMP_pressure;BME280_temperature;BME280_humidity;BME280_pressure;Samples;Min_cycle;Max_cycle;Signal;HPM_P1;HPM_P2
2022/05/20 00:01:08;;;;;;;12.00;2.93;;;18.80;65.70;;;;;;5085926;28;20256;-69
2022/05/20 00:03:37;;;;;;;3.43;3.00;;;18.80;65.80;;;;;;5073700;28;20655;-69
2022/05/20 00:06:04;;;;;;;8.23;3.50;;;18.70;65.80;;;;;;5080692;28;20207;-69
2022/05/20 00:08:32;;;;;;;6.17;3.13;;;18.80;66.00;;;;;;5076914;28;20254;-69
2022/05/20 00:10:59;;;;;;;6.93;2.83;;;18.70;66.30;;;;;;5084427;28;20212;-69
2022/05/20 00:13:28;;;;;;;7.10;3.00;;;18.70;67.20;;;;;;5106353;28;20264;-69
2022/05/20 00:15:55;;;;;;;9.63;2.83;;;18.70;66.70;;;;;;5082019;28;20761;-69
2022/05/20 00:18:23;;;;;;;4.27;3.30;;;18.70;67.00;;;;;;5078175;28;20237;-69
2022/05/20 00:20:50;;;;;;;10.87;3.43;;;18.60;67.10;;;;;;5065542;28;20214;-69
2022/05/20 00:23:17;;;;;;;7.83;3.67;;;18.60;67.10;;;;;;5106032;28;20249;-69
2022/05/20 00:25:47;;;;;;;4.63;3.47;;;18.60;67.00;;;;;;5082969;28;20209;-69
2022/05/20 00:28:20;;;;;;;4.50;2.70;;;18.60;67.00;;;;;;5075418;28;20201;-69
2022/05/20 00:30:56;;;;;;;4.07;3.00;;;18.50;67.30;;;;;;5083318;28;20289;-69
2022/05/20 00:33:25;;;;;;;5.37;2.83;;;18.50;67.50;;;;;;5090161;28;20208;-69
2022/05/20 00:35:52;;;;;;;7.13;3.17;;;18.50;67.70;;;;;;5083293;28;20224;-69
2022/05/20 00:38:20;;;;;;;4.57;3.53;;;18.40;67.70;;;;;;5090012;28;20226;-69
2022/05/20 00:40:49;;;;;;;7.97;3.27;;;18.40;67.90;;;;;;5084683;28;20303;-69
2022/05/20 00:43:25;;;;;;;3.23;2.90;;;18.40;68.10;;;;;;5075692;28;20200;-69
2022/05/20 00:45:58;;;;;;;5.17;3.00;;;18.40;68.20;;;;;;5081230;28;20289;-69
2022/05/20 00:48:26;;;;;;;5.40;2.83;;;18.40;68.20;;;;;;5080209;28;20609;-68
2022/05/20 00:51:14;;;;;;;4.40;3.20;;;18.40;68.00;;;;;;5063984;28;20204;-68
2022/05/20 00:53:50;;;;;;;9.40;3.10;;;18.40;68.40;;;;;;5074841;28;20201;-68
2022/05/20 00:56:22;;;;;;;9.13;3.73;;;18.40;68.50;;;;;;5082387;28;20206;-68
2022/05/20 00:58:51;;;;;;;7.57;3.07;;;18.40;69.00;;;;;;5105916;28;20662;-69
2022/05/20 01:01:19;;;;;;;10.27;2.80;;;18.40;69.40;;;;;;5065576;28;20207;-69
2022/05/20 01:03:47;;;;;;;9.27;2.90;;;18.30;69.50;;;;;;5085596;28;20226;-69
2022/05/20 01:06:14;;;;;;;7.47;3.10;;;18.30;69.30;;;;;;5086073;28;20553;-69
2022/05/20 01:08:41;;;;;;;7.90;3.47;;;18.30;69.50;;;;;;5103460;28;20202;-68
2022/05/20 01:11:08;;;;;;;9.00;3.27;;;18.30;69.80;;;;;;5085309;28;20209;-68
2022/05/20 01:13:36;;;;;;;7.10;3.37;;;18.20;69.90;;;;;;5078791;28;20204;-68
2022/05/20 01:16:08;;;;;;;6.63;3.67;;;18.20;69.90;;;;;;5083634;28;20202;-68
2022/05/20 01:18:39;;;;;;;7.40;3.43;;;18.20;70.00;;;;;;5088020;28;20198;-68
2022/05/20 01:21:06;;;;;;;7.00;3.40;;;18.20;70.20;;;;;;5083606;28;20225;-68
2022/05/20 01:23:35;;;;;;;6.20;3.07;;;18.20;70.60;;;;;;5092867;28;20229;-68
2022/05/20 01:26:03;;;;;;;9.30;4.03;;;18.20;70.80;;;;;;5087773;28;20202;-68
2022/05/20 01:28:32;;;;;;;6.77;3.83;;;18.10;70.90;;;;;;5079122;28;20202;-68
2022/05/20 01:31:02;;;;;;;6.70;3.50;;;18.10;71.00;;;;;;5064740;28;20210;-68
2022/05/20 01:33:33;;;;;;;9.97;3.13;;;18.10;71.20;;;;;;5079190;28;20214;-69
2022/05/20 01:36:03;;;;;;;4.30;3.07;;;18.10;71.30;;;;;;5083675;28;20204;-68
2022/05/20 01:38:31;;;;;;;8.07;3.23;;;18.10;71.60;;;;;;5079647;28;20222;-68
2022/05/20 01:41:24;;;;;;;3.73;3.00;;;18.10;71.80;;;;;;5081326;28;20231;-68
2022/05/20 01:44:00;;;;;;;4.50;3.03;;;18.10;71.90;;;;;;5073637;28;20301;-68
2022/05/20 01:46:49;;;;;;;5.60;2.83;;;18.00;71.70;;;;;;5082757;28;20216;-68
2022/05/20 01:49:30;;;;;;;6.23;3.03;;;18.00;71.80;;;;;;5081648;28;20582;-69
2022/05/20 01:52:16;;;;;;;5.53;3.17;;;18.00;72.10;;;;;;5084327;28;20203;-69
2022/05/20 01:55:10;;;;;;;11.00;3.73;;;18.00;72.10;;;;;;5077872;28;20201;-68
2022/05/20 01:58:03;;;;;;;6.63;3.20;;;18.00;72.10;;;;;;5080101;28;20233;-68
2022/05/20 02:00:33;;;;;;;5.13;3.50;;;17.90;72.30;;;;;;5108427;28;20214;-68
2022/05/20 02:03:17;;;;;;;5.13;3.30;;;17.90;72.30;;;;;;5082593;28;20195;-68
2022/05/20 02:05:47;;;;;;;4.93;3.17;;;17.90;72.70;;;;;;5091149;28;20202;-68
2022/05/20 02:08:24;;;;;;;5.07;2.90;;;17.80;72.90;;;;;;5085094;28;20205;-69
2022/05/20 02:11:06;;;;;;;6.53;3.40;;;17.80;73.20;;;;;;5080774;28;20272;-69
2022/05/20 02:13:38;;;;;;;5.03;3.30;;;17.70;73.50;;;;;;5089899;28;20639;-68
2022/05/20 02:16:21;;;;;;;7.73;3.20;;;17.70;73.70;;;;;;5090055;28;20189;-68
2022/05/20 02:19:03;;;;;;;6.23;3.07;;;17.70;74.10;;;;;;5087147;28;20213;-68
2022/05/20 02:21:33;;;;;;;6.97;3.50;;;17.70;74.30;;;;;;5080013;28;20193;-68
2022/05/20 02:24:06;;;;;;;4.33;3.47;;;17.60;74.50;;;;;;5079450;28;20318;-68
2022/05/20 02:26:40;;;;;;;9.23;3.83;;;17.60;74.70;;;;;;5083395;28;20203;-69
2022/05/20 02:29:15;;;;;;;6.83;3.83;;;17.60;74.80;;;;;;5079921;28;20209;-68
2022/05/20 02:31:48;;;;;;;7.93;3.50;;;17.60;74.80;;;;;;5074771;28;20197;-68
2022/05/20 02:34:15;;;;;;;10.00;3.77;;;17.60;75.00;;;;;;5074798;28;20206;-69
2022/05/20 02:36:42;;;;;;;8.63;3.87;;;17.60;75.00;;;;;;5080141;28;20440;-68
2022/05/20 02:39:20;;;;;;;8.27;3.50;;;17.50;75.20;;;;;;5105478;28;20209;-69
2022/05/20 02:41:49;;;;;;;5.80;3.13;;;17.50;75.30;;;;;;5075039;28;20296;-68
2022/05/20 02:44:16;;;;;;;4.43;2.73;;;17.50;75.50;;;;;;5079901;28;20201;-68
2022/05/20 02:46:47;;;;;;;5.20;3.57;;;17.50;75.60;;;;;;5071274;28;20551;-68
2022/05/20 02:49:14;;;;;;;6.53;3.00;;;17.40;75.70;;;;;;5079996;28;20199;-68
2022/05/20 02:51:41;;;;;;;5.40;3.07;;;17.50;75.90;;;;;;5078702;28;20646;-68
2022/05/20 02:54:08;;;;;;;4.57;2.93;;;17.40;76.00;;;;;;5103869;28;20297;-68
2022/05/20 02:56:38;;;;;;;6.37;3.23;;;17.40;76.20;;;;;;5106834;28;20204;-68
2022/05/20 03:04:36;;;;;;;3.33;3.03;;;17.30;76.50;;;;;;5061732;28;20213;-68
2022/05/20 03:07:03;;;;;;;4.73;3.27;;;17.30;76.80;;;;;;5094124;28;20549;-68
2022/05/20 03:09:30;;;;;;;7.67;3.40;;;17.30;76.90;;;;;;5088469;28;20706;-68
2022/05/20 03:11:57;;;;;;;4.83;3.47;;;17.20;76.90;;;;;;5079400;28;20201;-69
2022/05/20 03:14:25;;;;;;;6.23;3.90;;;17.30;77.10;;;;;;5087581;28;20600;-69
2022/05/20 03:16:52;;;;;;;6.60;3.20;;;17.20;77.20;;;;;;5086808;28;20218;-68
2022/05/20 03:19:20;;;;;;;7.90;3.60;;;17.20;77.30;;;;;;5085152;28;20226;-68
2022/05/20 03:21:48;;;;;;;5.47;3.17;;;17.20;77.50;;;;;;5090719;28;20628;-68
2022/05/20 03:24:16;;;;;;;5.60;3.40;;;17.20;77.60;;;;;;5072851;28;20247;-68
2022/05/20 03:26:43;;;;;;;7.50;3.53;;;17.20;77.70;;;;;;5092555;28;20216;-68
2022/05/20 03:29:10;;;;;;;5.47;3.80;;;17.20;77.80;;;;;;5073744;28;20197;-68
2022/05/20 03:31:39;;;;;;;4.57;3.40;;;17.20;77.90;;;;;;5073872;28;20209;-68
2022/05/20 03:34:07;;;;;;;7.97;3.60;;;17.20;78.00;;;;;;5084607;28;20200;-68
2022/05/20 03:36:36;;;;;;;5.20;3.07;;;17.20;78.10;;;;;;5091336;28;20203;-68
2022/05/20 03:39:04;;;;;;;4.60;3.77;;;17.20;78.80;;;;;;5082886;28;20230;-68
2022/05/20 03:41:32;;;;;;;8.33;3.70;;;17.20;78.20;;;;;;5075746;28;20531;-68
2022/05/20 03:44:02;;;;;;;7.57;3.90;;;17.10;78.20;;;;;;5072789;28;20518;-68
2022/05/20 03:46:31;;;;;;;12.87;3.50;;;17.20;78.40;;;;;;5075719;28;20232;-68
2022/05/20 03:48:59;;;;;;;9.70;3.80;;;17.10;78.50;;;;;;5081665;28;20209;-68
2022/05/20 03:51:27;;;;;;;8.97;4.37;;;17.10;78.70;;;;;;5075655;28;20220;-68
2022/05/20 03:53:54;;;;;;;6.10;3.93;;;17.10;78.90;;;;;;5081983;28;20295;-68
2022/05/20 03:56:21;;;;;;;5.30;4.07;;;17.10;79.00;;;;;;5091229;28;20214;-68
2022/05/20 03:58:48;;;;;;;7.40;4.07;;;17.10;79.20;;;;;;5085104;28;20317;-68
2022/05/20 04:04:01;;;;;;;4.43;3.83;;;17.10;79.40;;;;;;5083859;28;20216;-68
2022/05/20 04:06:28;;;;;;;7.80;3.90;;;17.10;79.50;;;;;;5070682;28;20213;-68
2022/05/20 04:08:55;;;;;;;6.83;3.40;;;17.10;79.90;;;;;;5085364;28;20212;-68
2022/05/20 04:11:23;;;;;;;6.03;3.67;;;17.10;79.90;;;;;;5077379;28;20210;-68
2022/05/20 04:13:50;;;;;;;11.07;4.40;;;17.10;79.90;;;;;;5080246;28;20584;-68
2022/05/20 04:16:17;;;;;;;5.43;3.37;;;17.20;79.90;;;;;;5085659;28;20206;-68
2022/05/20 04:18:44;;;;;;;4.27;3.87;;;17.20;79.70;;;;;;5077788;28;20240;-68
2022/05/20 04:21:13;;;;;;;8.03;3.77;;;17.20;79.80;;;;;;5104937;28;20217;-69
2022/05/20 04:23:42;;;;;;;6.80;4.10;;;17.30;79.90;;;;;;5066284;28;20682;-68
2022/05/20 04:26:10;;;;;;;7.17;4.13;;;17.30;80.00;;;;;;5082377;28;20204;-69
2022/05/20 04:28:38;;;;;;;7.87;3.60;;;17.40;79.90;;;;;;5094524;28;20217;-69
2022/05/20 04:31:07;;;;;;;7.43;4.30;;;17.50;79.90;;;;;;5087839;28;20661;-68
2022/05/20 04:33:35;;;;;;;7.57;4.10;;;17.50;79.80;;;;;;5087697;28;20307;-68
2022/05/20 04:36:04;;;;;;;6.30;3.93;;;17.60;79.70;;;;;;5084161;28;20553;-68
2022/05/20 04:38:31;;;;;;;6.07;4.17;;;17.60;79.50;;;;;;5083664;28;20231;-68
2022/05/20 04:49:15;;;;;;;9.43;4.47;;;17.90;79.40;;;;;;5086380;28;20215;-68
2022/05/20 04:51:42;;;;;;;8.97;3.83;;;18.00;79.30;;;;;;5095553;28;20197;-68
2022/05/20 04:56:55;;;;;;;9.37;3.83;;;18.10;78.90;;;;;;5077162;28;20205;-69
2022/05/20 04:59:24;;;;;;;8.70;4.20;;;18.20;78.80;;;;;;5085474;28;20226;-69
2022/05/20 05:01:52;;;;;;;5.87;3.80;;;18.30;78.60;;;;;;5075963;28;20602;-69
2022/05/20 05:04:20;;;;;;;8.73;4.57;;;18.40;78.20;;;;;;5093788;28;20631;-69
2022/05/20 05:06:48;;;;;;;7.37;4.17;;;18.60;78.00;;;;;;5092238;28;20260;-69
2022/05/20 05:09:15;;;;;;;11.73;4.03;;;18.60;77.80;;;;;;5093812;28;20212;-69
2022/05/20 05:11:42;;;;;;;5.33;3.77;;;18.80;77.50;;;;;;5085306;28;20202;-69
2022/05/20 05:14:14;;;;;;;8.83;4.10;;;18.90;77.20;;;;;;5100175;28;20271;-69
2022/05/20 05:16:43;;;;;;;4.97;3.37;;;19.00;77.10;;;;;;5088166;28;20203;-69
2022/05/20 05:19:11;;;;;;;13.80;3.43;;;19.10;77.00;;;;;;5084117;28;20238;-69
2022/05/20 05:21:38;;;;;;;6.77;3.67;;;19.30;76.90;;;;;;5093334;28;20283;-69
2022/05/20 05:24:06;;;;;;;4.90;3.33;;;19.50;76.30;;;;;;5078765;28;20233;-69
2022/05/20 05:26:37;;;;;;;8.53;3.60;;;19.60;76.10;;;;;;5071336;28;20214;-69
2022/05/20 05:29:04;;;;;;;6.73;3.77;;;19.80;75.80;;;;;;5082209;28;20215;-69
2022/05/20 05:31:31;;;;;;;4.83;3.53;;;19.90;75.40;;;;;;5074373;28;20234;-69
2022/05/20 05:33:59;;;;;;;4.93;3.90;;;20.10;75.10;;;;;;5112956;28;20207;-69
2022/05/20 05:36:28;;;;;;;9.37;4.53;;;20.30;74.70;;;;;;5091402;28;20218;-69
2022/05/20 05:38:55;;;;;;;10.60;4.53;;;20.50;74.20;;;;;;5093573;28;20254;-69
2022/05/20 05:41:22;;;;;;;4.90;3.70;;;20.70;74.00;;;;;;5091030;28;20290;-69
2022/05/20 05:43:50;;;;;;;12.23;4.80;;;20.70;73.60;;;;;;5096357;28;20588;-70
2022/05/20 05:46:17;;;;;;;12.30;4.10;;;20.80;73.00;;;;;;5085708;28;20506;-69
2022/05/20 05:48:44;;;;;;;6.80;4.23;;;20.90;72.80;;;;;;5060653;28;20229;-69
2022/05/20 05:51:11;;;;;;;6.63;3.40;;;20.90;72.80;;;;;;5068812;28;20212;-69
2022/05/20 05:53:38;;;;;;;7.70;3.60;;;21.10;72.70;;;;;;5070216;28;20205;-69
2022/05/20 05:56:06;;;;;;;6.97;3.33;;;21.20;72.80;;;;;;5083022;28;20205;-69
2022/05/20 05:58:34;;;;;;;5.13;3.80;;;21.30;72.80;;;;;;5075774;28;20231;-69
2022/05/20 06:01:02;;;;;;;5.37;3.73;;;21.50;72.60;;;;;;5075442;28;20627;-70
2022/05/20 06:03:30;;;;;;;8.37;3.47;;;21.70;72.30;;;;;;5082227;28;20201;-70
2022/05/20 06:05:57;;;;;;;3.77;3.17;;;21.80;72.00;;;;;;5084580;28;20196;-69
2022/05/20 06:08:25;;;;;;;6.17;3.33;;;22.00;71.40;;;;;;5093140;28;20645;-69
2022/05/20 06:10:59;;;;;;;6.50;3.40;;;22.10;70.40;;;;;;5087959;28;20197;-69
2022/05/20 06:13:30;;;;;;;5.93;3.60;;;22.20;70.00;;;;;;5078014;28;20691;-69
2022/05/20 06:15:57;;;;;;;8.37;3.87;;;22.40;69.50;;;;;;5084146;28;20201;-69
2022/05/20 06:18:26;;;;;;;9.20;3.47;;;22.50;69.00;;;;;;5079274;28;20274;-70
2022/05/20 06:20:53;;;;;;;5.70;3.60;;;22.60;68.60;;;;;;5098144;28;20228;-69
2022/05/20 06:23:20;;;;;;;5.40;3.77;;;22.80;68.50;;;;;;5073644;28;20255;-69
2022/05/20 06:25:48;;;;;;;9.77;4.17;;;22.90;67.90;;;;;;5088682;28;20259;-68
2022/05/20 06:28:35;;;;;;;6.80;3.40;;;23.00;67.00;;;;;;5086086;28;20192;-68
2022/05/20 06:31:05;;;;;;;5.63;3.50;;;23.10;66.60;;;;;;5065264;28;20232;-68
2022/05/20 06:33:32;;;;;;;7.07;3.60;;;23.20;66.40;;;;;;5074723;28;20209;-68
2022/05/20 06:41:30;;;;;;;3.90;3.27;;;23.50;65.80;;;;;;5080939;28;20202;-68
2022/05/20 06:43:58;;;;;;;7.47;3.70;;;23.70;65.30;;;;;;5092006;28;20214;-68
2022/05/20 06:46:25;;;;;;;4.73;3.30;;;23.90;63.80;;;;;;5102769;28;20280;-68
2022/05/20 06:48:59;;;;;;;5.00;4.07;;;24.00;63.10;;;;;;5093942;28;20223;-68
2022/05/20 06:51:34;;;;;;;8.47;4.93;;;24.10;63.10;;;;;;5065709;28;20202;-68
2022/05/20 06:54:02;;;;;;;5.67;3.63;;;24.20;62.60;;;;;;5074305;28;20537;-68
2022/05/20 06:56:30;;;;;;;6.83;3.90;;;24.30;63.30;;;;;;5081765;28;20202;-68
2022/05/20 06:58:59;;;;;;;13.57;4.17;;;24.40;62.30;;;;;;5106013;28;20329;-68
2022/05/20 07:01:28;;;;;;;5.30;3.50;;;24.50;62.70;;;;;;5087215;28;20193;-68
2022/05/20 07:03:55;;;;;;;8.83;3.70;;;24.60;62.90;;;;;;5078175;28;20220;-67
2022/05/20 07:06:24;;;;;;;7.27;3.00;;;24.80;62.60;;;;;;5078893;28;20219;-67
2022/05/20 07:08:51;;;;;;;7.00;3.67;;;25.00;61.80;;;;;;5090095;28;20201;-67
2022/05/20 07:11:23;;;;;;;7.00;3.40;;;25.20;61.60;;;;;;5068441;28;20321;-67
2022/05/20 07:13:55;;;;;;;11.30;4.13;;;25.30;60.00;;;;;;5077871;28;20201;-67
2022/05/20 07:16:25;;;;;;;5.93;3.63;;;25.50;60.00;;;;;;5079193;28;20689;-67
2022/05/20 07:18:52;;;;;;;7.07;4.47;;;25.70;59.60;;;;;;5089444;28;20233;-67
2022/05/20 07:21:20;;;;;;;6.93;3.93;;;25.80;59.30;;;;;;5089414;28;20216;-67
2022/05/20 07:23:48;;;;;;;3.83;3.37;;;25.90;58.50;;;;;;5094619;28;20308;-68
2022/05/20 07:26:16;;;;;;;14.13;3.70;;;25.90;58.60;;;;;;5079811;28;20203;-68
2022/05/20 07:28:44;;;;;;;4.37;3.93;;;26.00;58.30;;;;;;5088340;28;20215;-68
2022/05/20 07:31:11;;;;;;;8.27;4.30;;;26.20;57.70;;;;;;5086750;28;20198;-68
2022/05/20 07:33:38;;;;;;;8.07;4.60;;;26.40;56.50;;;;;;5069209;28;20557;-68
2022/05/20 07:36:06;;;;;;;6.93;4.03;;;26.40;55.90;;;;;;5090185;28;20205;-69
2022/05/20 07:38:34;;;;;;;8.00;3.80;;;26.40;56.10;;;;;;5062768;28;20225;-68
2022/05/20 07:41:02;;;;;;;8.93;4.07;;;26.60;56.50;;;;;;5076690;28;20204;-68
2022/05/20 07:43:29;;;;;;;8.13;3.77;;;26.70;55.10;;;;;;5073340;28;20277;-68
2022/05/20 07:45:56;;;;;;;8.47;4.30;;;26.80;55.50;;;;;;5073228;28;20223;-69
2022/05/20 07:48:23;;;;;;;9.23;4.80;;;26.90;55.10;;;;;;5079026;28;20263;-68
2022/05/20 07:50:57;;;;;;;8.03;4.20;;;27.00;53.10;;;;;;5090992;28;20208;-68
2022/05/20 07:53:35;;;;;;;9.60;3.97;;;27.00;53.80;;;;;;5082058;28;20726;-68
2022/05/20 07:56:33;;;;;;;6.43;4.20;;;27.00;52.90;;;;;;5096047;28;20507;-68
2022/05/20 07:59:12;;;;;;;7.07;4.40;;;27.10;53.50;;;;;;5079584;28;20271;-67
2022/05/20 08:01:44;;;;;;;5.63;3.70;;;27.30;53.70;;;;;;5087072;28;20253;-68
2022/05/20 08:07:07;;;;;;;8.50;3.20;;;27.50;53.50;;;;;;5078125;28;20194;-68
2022/05/20 08:09:34;;;;;;;7.73;3.67;;;27.60;53.40;;;;;;5087019;28;20215;-68
2022/05/20 08:12:02;;;;;;;10.03;3.13;;;27.80;53.60;;;;;;5078188;28;20693;-68
2022/05/20 08:14:33;;;;;;;5.70;2.97;;;27.90;51.60;;;;;;5087579;28;20642;-68
2022/05/20 08:17:02;;;;;;;8.13;2.47;;;28.00;51.50;;;;;;5066433;28;20208;-68
2022/05/20 08:19:29;;;;;;;6.63;3.27;;;28.10;50.30;;;;;;5086152;28;20208;-68
2022/05/20 08:21:57;;;;;;;6.37;2.57;;;28.20;50.10;;;;;;5068421;28;20201;-69
2022/05/20 08:24:24;;;;;;;4.73;3.13;;;28.20;49.40;;;;;;5085532;28;20690;-68
2022/05/20 08:26:52;;;;;;;11.03;2.97;;;28.40;50.60;;;;;;5079388;28;20208;-68
2022/05/20 08:29:20;;;;;;;4.93;2.93;;;28.50;49.40;;;;;;5085430;28;20207;-68
2022/05/20 08:31:47;;;;;;;5.60;2.37;;;28.60;48.70;;;;;;5090477;28;20206;-68
2022/05/20 08:34:14;;;;;;;6.60;2.10;;;28.60;48.60;;;;;;5096057;28;20620;-68
2022/05/20 08:36:42;;;;;;;5.53;2.67;;;28.70;48.30;;;;;;5075012;28;20208;-68
2022/05/20 08:39:12;;;;;;;9.07;2.93;;;28.80;47.50;;;;;;5065486;28;20228;-68
2022/05/20 08:41:46;;;;;;;6.97;2.80;;;28.90;47.40;;;;;;5072276;28;20544;-69
2022/05/20 08:44:18;;;;;;;5.07;2.47;;;29.10;47.70;;;;;;5084376;28;20647;-70
2022/05/20 08:46:48;;;;;;;7.73;2.97;;;29.20;47.40;;;;;;5084860;28;20638;-70
2022/05/20 08:49:18;;;;;;;4.07;2.77;;;29.30;46.70;;;;;;5065652;28;20308;-69
2022/05/20 08:51:49;;;;;;;7.60;3.07;;;29.30;46.20;;;;;;5074453;28;20211;-70
2022/05/20 08:54:17;;;;;;;7.93;2.97;;;29.30;47.10;;;;;;5071915;28;20206;-70
2022/05/20 08:56:46;;;;;;;4.53;2.63;;;29.30;47.90;;;;;;5061443;28;20535;-69
2022/05/20 08:59:19;;;;;;;5.90;2.23;;;29.30;47.80;;;;;;5082571;28;20582;-70
2022/05/20 09:01:50;;;;;;;8.03;2.87;;;29.50;47.10;;;;;;5069635;28;20293;-70
2022/05/20 09:04:22;;;;;;;6.17;2.80;;;29.60;46.30;;;;;;5063796;28;20214;-70
2022/05/20 09:07:05;;;;;;;9.93;2.53;;;29.60;45.90;;;;;;5075164;28;20316;-70
2022/05/20 09:09:46;;;;;;;5.73;2.60;;;29.70;46.00;;;;;;5079695;28;20237;-69
2022/05/20 09:12:39;;;;;;;19.93;3.83;;;29.90;46.40;;;;;;5055386;28;20211;-70
2022/05/20 09:18:11;;;;;;;3.00;2.10;;;30.10;46.70;;;;;;5076248;28;20202;-70
2022/05/20 09:20:45;;;;;;;3.50;2.27;;;30.30;46.60;;;;;;5094186;28;20551;-70
2022/05/20 09:23:15;;;;;;;5.33;2.17;;;30.40;46.30;;;;;;5079815;28;20324;-70
2022/05/20 09:26:07;;;;;;;2.30;1.90;;;30.50;45.10;;;;;;5081143;28;20639;-71
2022/05/20 09:28:34;;;;;;;5.37;2.40;;;30.60;44.20;;;;;;5082393;28;20249;-69
2022/05/20 09:31:36;;;;;;;6.43;2.70;;;30.60;44.00;;;;;;5079788;28;20240;-70
2022/05/20 09:34:27;;;;;;;7.23;2.70;;;30.70;44.10;;;;;;5086568;28;20221;-69
2022/05/20 09:37:02;;;;;;;3.63;2.57;;;30.80;44.40;;;;;;5086806;28;20584;-69
2022/05/20 09:39:41;;;;;;;7.67;2.73;;;30.90;43.90;;;;;;5084723;28;20229;-70
2022/05/20 09:42:22;;;;;;;4.07;2.33;;;31.00;44.10;;;;;;5078280;28;20197;-70
2022/05/20 09:44:52;;;;;;;4.80;2.70;;;31.00;43.40;;;;;;5086091;28;20275;-70
2022/05/20 09:48:00;;;;;;;11.83;2.50;;;31.10;43.90;;;;;;5078401;28;20528;-70
2022/05/20 09:50:34;;;;;;;6.23;2.30;;;31.20;43.50;;;;;;5031985;28;20214;-69
2022/05/20 09:53:32;;;;;;;6.50;3.17;;;31.30;43.10;;;;;;5081774;28;20664;-70
2022/05/20 09:56:33;;;;;;;5.77;2.20;;;31.40;41.50;;;;;;5082000;28;20205;-70
2022/05/20 09:59:13;;;;;;;8.67;2.63;;;31.30;42.40;;;;;;5059012;28;20312;-70
2022/05/20 10:01:46;;;;;;;4.07;2.47;;;31.30;42.00;;;;;;5079387;28;20206;-70
2022/05/20 10:04:23;;;;;;;6.10;2.53;;;31.10;42.10;;;;;;5065813;28;20204;-70
2022/05/20 10:06:56;;;;;;;6.80;2.80;;;31.00;43.00;;;;;;5079797;28;20201;-70
2022/05/20 10:09:40;;;;;;;5.40;2.87;;;31.00;41.70;;;;;;5082058;28;20707;-70
2022/05/20 10:12:11;;;;;;;4.93;2.60;;;31.10;41.90;;;;;;5094236;28;20201;-70
2022/05/20 10:15:12;;;;;;;5.30;2.53;;;31.10;43.40;;;;;;5081942;28;20208;-72
2022/05/20 10:17:57;;;;;;;4.90;2.57;;;31.20;44.30;;;;;;5077697;28;20226;-70
2022/05/20 10:20:27;;;;;;;7.47;3.10;;;31.30;44.80;;;;;;5084031;28;20231;-70
2022/05/20 10:23:13;;;;;;;7.13;2.53;;;31.40;42.90;;;;;;5092351;28;20201;-70
2022/05/20 10:25:59;;;;;;;6.03;2.97;;;31.40;42.00;;;;;;5101838;28;20278;-70
2022/05/20 10:34:35;;;;;;;2.97;2.50;;;31.40;42.60;;;;;;5081130;28;20219;-70
2022/05/20 10:37:15;;;;;;;6.90;2.70;;;31.40;42.90;;;;;;5105571;28;20205;-70
2022/05/20 10:40:06;;;;;;;5.70;3.00;;;31.50;43.30;;;;;;5080108;28;20227;-70
2022/05/20 10:42:39;;;;;;;6.20;2.60;;;31.60;42.20;;;;;;5076828;28;20286;-70
2022/05/20 10:48:35;;;;;;;5.60;2.60;;;31.70;43.10;;;;;;5078730;28;20197;-71
2022/05/20 10:51:30;;;;;;;5.77;2.60;;;31.90;43.00;;;;;;5066374;28;20209;-70
2022/05/20 10:54:06;;;;;;;6.57;2.90;;;32.00;42.90;;;;;;5091207;28;20254;-70
2022/05/20 10:56:44;;;;;;;3.07;2.37;;;32.10;41.90;;;;;;5081969;28;20209;-70
2022/05/20 10:59:19;;;;;;;6.23;2.40;;;32.20;42.30;;;;;;5091824;28;20217;-70
2022/05/20 11:02:21;;;;;;;2.60;2.40;;;32.20;41.90;;;;;;5081990;28;20196;-70
2022/05/20 11:05:11;;;;;;;2.90;2.40;;;32.20;41.10;;;;;;5080420;28;20519;-70
2022/05/20 11:08:00;;;;;;;5.27;2.43;;;32.20;40.80;;;;;;5082625;28;20245;-70
2022/05/20 11:10:52;;;;;;;3.60;2.27;;;32.20;41.40;;;;;;5083049;28;20217;-70
2022/05/20 11:13:45;;;;;;;4.47;2.63;;;32.30;41.60;;;;;;5069080;28;20254;-70
2022/05/20 11:16:47;;;;;;;7.50;2.47;;;32.40;41.80;;;;;;5081323;28;20202;-70
2022/05/20 11:19:27;;;;;;;7.23;2.53;;;32.50;42.50;;;;;;5076230;28;20213;-70
2022/05/20 11:22:19;;;;;;;5.43;2.50;;;32.60;42.40;;;;;;5065779;28;20267;-71
2022/05/20 11:24:52;;;;;;;5.83;2.70;;;32.80;41.60;;;;;;5106430;28;20377;-70
2022/05/20 11:27:19;;;;;;;4.93;2.63;;;32.80;41.40;;;;;;5086890;28;20201;-70
2022/05/20 11:30:10;;;;;;;4.47;2.90;;;32.90;41.50;;;;;;5090614;28;20189;-71
2022/05/20 11:32:40;;;;;;;6.97;3.30;;;33.00;40.50;;;;;;5079645;28;20215;-70
2022/05/20 11:35:07;;;;;;;4.63;2.70;;;32.90;39.80;;;;;;5079118;28;20635;-70
2022/05/20 11:37:54;;;;;;;5.30;3.40;;;32.90;40.70;;;;;;5074247;28;20214;-70
2022/05/20 11:40:42;;;;;;;4.47;2.20;;;32.80;39.80;;;;;;5073597;28;20228;-70
2022/05/20 11:43:30;;;;;;;4.47;2.80;;;32.60;42.20;;;;;;5105131;28;20207;-70
2022/05/20 11:46:26;;;;;;;9.00;3.20;;;32.60;41.10;;;;;;5086549;28;20201;-70
2022/05/20 11:49:21;;;;;;;9.80;3.23;;;32.60;40.90;;;;;;5099835;28;20708;-70
2022/05/20 11:52:11;;;;;;;5.73;2.83;;;32.70;40.80;;;;;;5081494;28;20255;-70
2022/05/20 11:54:50;;;;;;;7.50;3.23;;;32.80;40.90;;;;;;5057784;28;20556;-70
2022/05/20 11:57:27;;;;;;;6.33;3.20;;;32.90;40.50;;;;;;5100303;28;20204;-70
2022/05/20 12:00:05;;;;;;;4.43;2.83;;;32.90;40.80;;;;;;5075848;28;20570;-71
2022/05/20 12:02:39;;;;;;;6.17;2.90;;;32.90;39.20;;;;;;5085165;28;20291;-70
2022/05/20 12:05:11;;;;;;;7.83;3.33;;;32.90;39.70;;;;;;5080161;28;20694;-70
2022/05/20 12:07:39;;;;;;;4.70;2.57;;;32.90;39.50;;;;;;5081344;28;20213;-71
2022/05/20 12:10:38;;;;;;;5.13;3.53;;;32.80;40.40;;;;;;5093345;28;20201;-71
2022/05/20 12:13:25;;;;;;;5.67;3.43;;;32.70;40.70;;;;;;5095710;28;20268;-70
2022/05/20 12:16:12;;;;;;;6.03;3.07;;;32.80;41.00;;;;;;5087008;28;20606;-70
2022/05/20 12:24:52;;;;;;;7.00;3.50;;;32.90;42.00;;;;;;5090262;28;20248;-70
2022/05/20 12:27:24;;;;;;;7.67;3.13;;;32.90;39.80;;;;;;5082462;28;20212;-71
2022/05/20 12:29:58;;;;;;;4.10;2.90;;;32.90;39.90;;;;;;5106571;28;20296;-71
2022/05/20 12:32:36;;;;;;;8.17;3.27;;;32.90;41.10;;;;;;5099611;28;20288;-70
2022/05/20 12:35:15;;;;;;;9.63;3.70;;;33.10;42.10;;;;;;5076879;28;20221;-70
2022/05/20 12:37:42;;;;;;;7.43;3.10;;;33.20;41.20;;;;;;5083195;28;20226;-70
2022/05/20 12:40:18;;;;;;;5.60;2.83;;;33.20;41.80;;;;;;5075067;28;20686;-70
2022/05/20 12:42:54;;;;;;;6.20;3.20;;;33.20;42.20;;;;;;5082762;28;20198;-70
2022/05/20 12:45:23;;;;;;;6.30;3.33;;;33.20;41.10;;;;;;5084716;28;20204;-70
2022/05/20 12:47:50;;;;;;;5.67;2.60;;;33.30;40.10;;;;;;5086935;28;20205;-70
2022/05/20 12:50:17;;;;;;;6.20;2.70;;;33.20;40.60;;;;;;5091246;28;20306;-70
2022/05/20 12:52:50;;;;;;;3.17;2.83;;;33.20;41.00;;;;;;5072899;28;20198;-70
2022/05/20 12:55:33;;;;;;;3.17;2.70;;;33.20;40.90;;;;;;5087941;28;20214;-70
2022/05/20 12:58:03;;;;;;;7.00;3.33;;;33.30;39.90;;;;;;5085589;28;20274;-70
2022/05/20 13:00:47;;;;;;;3.87;2.87;;;33.30;40.40;;;;;;5092033;28;20216;-70
2022/05/20 13:03:29;;;;;;;4.43;2.73;;;33.30;40.40;;;;;;5083938;28;20241;-70
2022/05/20 13:06:03;;;;;;;4.13;2.83;;;33.30;41.60;;;;;;5091095;28;20200;-70
2022/05/20 13:08:30;;;;;;;10.70;3.60;;;33.30;41.70;;;;;;5066641;28;20269;-70
2022/05/20 13:11:11;;;;;;;8.53;3.90;;;33.40;41.50;;;;;;5080211;28;20202;-71
2022/05/20 13:13:40;;;;;;;7.67;3.07;;;33.40;39.80;;;;;;5085599;28;20208;-70
2022/05/20 13:16:11;;;;;;;4.73;3.20;;;33.40;40.80;;;;;;5080401;28;20308;-70
2022/05/20 13:18:40;;;;;;;8.23;2.97;;;33.40;40.10;;;;;;5074869;28;20598;-70
2022/05/20 13:21:15;;;;;;;7.57;3.00;;;33.40;39.80;;;;;;5079004;28;20261;-70
2022/05/20 13:23:46;;;;;;;8.80;3.03;;;33.30;40.40;;;;;;5086155;28;20324;-70
2022/05/20 13:26:25;;;;;;;6.70;3.00;;;33.40;41.00;;;;;;5079601;28;20204;-70
2022/05/20 13:29:10;;;;;;;4.97;2.47;;;33.40;40.20;;;;;;5086519;28;20197;-71
2022/05/20 13:31:38;;;;;;;2.73;2.40;;;33.40;40.20;;;;;;5078865;28;20212;-70
2022/05/20 13:34:06;;;;;;;3.80;2.40;;;33.40;40.00;;;;;;5088196;28;20216;-71
2022/05/20 13:36:49;;;;;;;2.93;2.60;;;33.40;40.00;;;;;;5093794;28;20201;-70
2022/05/20 13:39:26;;;;;;;3.23;2.60;;;33.30;40.70;;;;;;5088778;28;20205;-70
2022/05/20 13:41:54;;;;;;;4.93;2.67;;;33.30;40.60;;;;;;5061368;28;20540;-71
2022/05/20 13:44:25;;;;;;;6.63;2.67;;;33.30;39.80;;;;;;5088510;28;20228;-71
2022/05/20 13:49:45;;;;;;;6.93;2.67;;;33.30;39.90;;;;;;5082815;28;20263;-70
2022/05/20 13:52:14;;;;;;;8.50;3.33;;;33.20;39.10;;;;;;5108138;28;20219;-70
2022/05/20 13:54:51;;;;;;;4.63;2.67;;;33.10;39.90;;;;;;5075750;28;20210;-70
2022/05/20 13:57:24;;;;;;;5.33;2.80;;;33.00;39.90;;;;;;5075778;28;20213;-68
2022/05/20 13:59:53;;;;;;;2.43;2.17;;;33.00;40.30;;;;;;5068628;28;20226;-68
2022/05/20 14:02:37;;;;;;;6.53;3.00;;;33.00;40.40;;;;;;5092261;28;20220;-68
2022/05/20 14:05:25;;;;;;;5.03;3.10;;;33.00;40.00;;;;;;5081652;28;20289;-69